sensor_id;sensor_type;location;lat;lon;timestamp;P1;durP1;ratioP1;P2;durP2;ratioP2
8640;SDS011;4358;42.100;25.222;2024-02-23T00:01:53;15.40;;;10.63;;
8640;SDS011;4358;42.100;25.222;2024-02-23T00:04:20;15.67;;;11.10;;
8640;SDS011;4358;42.100;25.222;2024-02-23T00:06:47;15.73;;;11.40;;
8640;SDS011;4358;42.100;25.222;2024-02-23T00:09:15;14.30;;;11.03;;
8640;SDS011;4358;42.100;25.222;2024-02-23T00:11:42;15.10;;;11.00;;
8640;SDS011;4358;42.100;25.222;2024-02-23T00:14:10;17.33;;;12.20;;
8640;SDS011;4358;42.100;25.222;2024-02-23T00:16:37;21.53;;;12.83;;
8640;SDS011;4358;42.100;25.222;2024-02-23T00:19:06;17.57;;;11.43;;
8640;SDS011;4358;42.100;25.222;2024-02-23T00:21:34;16.50;;;11.97;;
8640;SDS011;4358;42.100;25.222;2024-02-23T00:24:00;17.50;;;11.37;;
8640;SDS011;4358;42.100;25.222;2024-02-23T00:26:28;16.60;;;11.97;;
8640;SDS011;4358;42.100;25.222;2024-02-23T00:28:55;16.83;;;11.43;;
8640;SDS011;4358;42.100;25.222;2024-02-23T00:31:22;17.17;;;12.47;;
8640;SDS011;4358;42.100;25.222;2024-02-23T00:33:49;15.73;;;10.70;;
8640;SDS011;4358;42.100;25.222;2024-02-23T00:36:16;14.33;;;10.57;;
8640;SDS011;4358;42.100;25.222;2024-02-23T00:38:43;16.43;;;11.97;;
8640;SDS011;4358;42.100;25.222;2024-02-23T00:41:09;14.37;;;11.07;;
8640;SDS011;4358;42.100;25.222;2024-02-23T00:43:40;14.93;;;10.73;;
8640;SDS011;4358;42.100;25.222;2024-02-23T00:46:08;15.63;;;11.03;;
8640;SDS011;4358;42.100;25.222;2024-02-23T00:48:35;15.67;;;11.67;;
8640;SDS011;4358;42.100;25.222;2024-02-23T00:51:02;15.90;;;11.40;;
8640;SDS011;4358;42.100;25.222;2024-02-23T00:53:30;19.80;;;13.07;;
8640;SDS011;4358;42.100;25.222;2024-02-23T00:55:57;19.73;;;12.93;;
8640;SDS011;4358;42.100;25.222;2024-02-23T00:58:24;19.90;;;13.47;;
8640;SDS011;4358;42.100;25.222;2024-02-23T01:00:52;19.17;;;12.53;;
8640;SDS011;4358;42.100;25.222;2024-02-23T01:03:19;26.10;;;14.83;;
8640;SDS011;4358;42.100;25.222;2024-02-23T01:05:46;18.30;;;12.57;;
8640;SDS011;4358;42.100;25.222;2024-02-23T01:08:13;18.10;;;12.17;;
8640;SDS011;4358;42.100;25.222;2024-02-23T01:10:40;18.43;;;13.27;;
8640;SDS011;4358;42.100;25.222;2024-02-23T01:13:06;19.40;;;12.77;;
8640;SDS011;4358;42.100;25.222;2024-02-23T01:15:33;16.07;;;12.00;;
8640;SDS011;4358;42.100;25.222;2024-02-23T01:18:03;18.77;;;12.53;;
8640;SDS011;4358;42.100;25.222;2024-02-23T01:20:31;14.67;;;12.17;;
8640;SDS011;4358;42.100;25.222;2024-02-23T01:22:57;15.47;;;12.07;;
8640;SDS011;4358;42.100;25.222;2024-02-23T01:25:24;15.90;;;11.90;;
8640;SDS011;4358;42.100;25.222;2024-02-23T01:27:51;16.50;;;11.73;;
8640;SDS011;4358;42.100;25.222;2024-02-23T01:30:18;16.53;;;11.17;;
8640;SDS011;4358;42.100;25.222;2024-02-23T01:32:45;18.30;;;12.73;;
8640;SDS011;4358;42.100;25.222;2024-02-23T01:35:13;14.63;;;12.40;;
8640;SDS011;4358;42.100;25.222;2024-02-23T01:37:40;16.40;;;11.83;;
8640;SDS011;4358;42.100;25.222;2024-02-23T01:40:07;16.03;;;12.10;;
8640;SDS011;4358;42.100;25.222;2024-02-23T01:42:34;15.00;;;11.27;;
8640;SDS011;4358;42.100;25.222;2024-02-23T01:45:01;16.80;;;11.63;;
8640;SDS011;4358;42.100;25.222;2024-02-23T01:47:28;14.90;;;11.47;;
8640;SDS011;4358;42.100;25.222;2024-02-23T01:49:56;15.13;;;11.23;;
8640;SDS011;4358;42.100;25.222;2024-02-23T01:52:25;15.87;;;11.53;;
8640;SDS011;4358;42.100;25.222;2024-02-23T01:54:52;17.70;;;11.43;;
8640;SDS011;4358;42.100;25.222;2024-02-23T01:57:21;14.73;;;12.07;;
8640;SDS011;4358;42.100;25.222;2024-02-23T01:59:49;17.70;;;12.17;;
8640;SDS011;4358;42.100;25.222;2024-02-23T02:02:16;16.27;;;11.43;;
8640;SDS011;4358;42.100;25.222;2024-02-23T02:04:43;16.40;;;11.63;;
8640;SDS011;4358;42.100;25.222;2024-02-23T02:07:10;16.87;;;12.23;;
8640;SDS011;4358;42.100;25.222;2024-02-23T02:09:38;17.03;;;11.73;;
8640;SDS011;4358;42.100;25.222;2024-02-23T02:12:05;15.93;;;11.60;;
8640;SDS011;4358;42.100;25.222;2024-02-23T02:14:32;17.40;;;11.13;;
8640;SDS011;4358;42.100;25.222;2024-02-23T02:16:58;16.67;;;12.10;;
8640;SDS011;4358;42.100;25.222;2024-02-23T02:19:25;18.87;;;13.53;;
8640;SDS011;4358;42.100;25.222;2024-02-23T02:21:52;17.73;;;13.23;;
8640;SDS011;4358;42.100;25.222;2024-02-23T02:24:18;16.67;;;12.23;;
8640;SDS011;4358;42.100;25.222;2024-02-23T02:26:47;16.40;;;11.60;;
8640;SDS011;4358;42.100;25.222;2024-02-23T02:29:15;16.97;;;11.87;;
8640;SDS011;4358;42.100;25.222;2024-02-23T02:31:42;14.97;;;11.63;;
8640;SDS011;4358;42.100;25.222;2024-02-23T02:34:09;16.53;;;11.83;;
8640;SDS011;4358;42.100;25.222;2024-02-23T02:36:38;16.00;;;11.67;;
8640;SDS011;4358;42.100;25.222;2024-02-23T02:39:05;26.43;;;17.63;;
8640;SDS011;4358;42.100;25.222;2024-02-23T02:41:32;22.37;;;14.87;;
8640;SDS011;4358;42.100;25.222;2024-02-23T02:44:00;19.70;;;13.70;;
8640;SDS011;4358;42.100;25.222;2024-02-23T02:46:27;24.37;;;19.10;;
8640;SDS011;4358;42.100;25.222;2024-02-23T02:48:54;25.77;;;19.37;;
8640;SDS011;4358;42.100;25.222;2024-02-23T02:51:20;30.03;;;22.63;;
8640;SDS011;4358;42.100;25.222;2024-02-23T02:53:47;27.07;;;17.40;;
8640;SDS011;4358;42.100;25.222;2024-02-23T02:56:14;24.73;;;17.37;;
8640;SDS011;4358;42.100;25.222;2024-02-23T02:58:41;22.87;;;16.27;;
8640;SDS011;4358;42.100;25.222;2024-02-23T03:01:09;22.00;;;14.87;;
8640;SDS011;4358;42.100;25.222;2024-02-23T03:03:36;20.10;;;14.03;;
8640;SDS011;4358;42.100;25.222;2024-02-23T03:06:03;19.90;;;14.10;;
8640;SDS011;4358;42.100;25.222;2024-02-23T03:08:30;19.10;;;13.93;;
8640;SDS011;4358;42.100;25.222;2024-02-23T03:10:57;17.87;;;13.30;;
8640;SDS011;4358;42.100;25.222;2024-02-23T03:13:24;19.50;;;14.50;;
8640;SDS011;4358;42.100;25.222;2024-02-23T03:15:51;20.47;;;13.43;;
8640;SDS011;4358;42.100;25.222;2024-02-23T03:18:19;17.87;;;13.07;;
8640;SDS011;4358;42.100;25.222;2024-02-23T03:20:46;18.80;;;14.00;;
8640;SDS011;4358;42.100;25.222;2024-02-23T03:23:13;24.23;;;17.17;;
8640;SDS011;4358;42.100;25.222;2024-02-23T03:25:40;22.03;;;14.30;;
8640;SDS011;4358;42.100;25.222;2024-02-23T03:28:06;19.23;;;14.10;;
8640;SDS011;4358;42.100;25.222;2024-02-23T03:30:33;19.57;;;13.73;;
8640;SDS011;4358;42.100;25.222;2024-02-23T03:33:00;21.73;;;13.03;;
8640;SDS011;4358;42.100;25.222;2024-02-23T03:35:28;22.07;;;13.67;;
8640;SDS011;4358;42.100;25.222;2024-02-23T03:37:55;22.27;;;14.13;;
8640;SDS011;4358;42.100;25.222;2024-02-23T03:40:22;20.47;;;13.20;;
8640;SDS011;4358;42.100;25.222;2024-02-23T03:42:48;19.80;;;12.97;;
8640;SDS011;4358;42.100;25.222;2024-02-23T03:45:15;21.83;;;15.37;;
8640;SDS011;4358;42.100;25.222;2024-02-23T03:47:42;20.43;;;14.43;;
8640;SDS011;4358;42.100;25.222;2024-02-23T03:50:09;20.80;;;14.57;;
8640;SDS011;4358;42.100;25.222;2024-02-23T03:52:37;24.03;;;14.67;;
8640;SDS011;4358;42.100;25.222;2024-02-23T03:55:05;24.57;;;14.37;;
8640;SDS011;4358;42.100;25.222;2024-02-23T03:57:32;71.90;;;23.57;;
8640;SDS011;4358;42.100;25.222;2024-02-23T03:59:59;42.27;;;18.23;;
8640;SDS011;4358;42.100;25.222;2024-02-23T04:02:25;51.93;;;19.43;;
8640;SDS011;4358;42.100;25.222;2024-02-23T04:04:52;31.37;;;18.17;;
8640;SDS011;4358;42.100;25.222;2024-02-23T04:07:19;26.30;;;17.20;;
8640;SDS011;4358;42.100;25.222;2024-02-23T04:09:47;26.40;;;16.03;;
8640;SDS011;4358;42.100;25.222;2024-02-23T04:12:19;20.93;;;14.77;;
8640;SDS011;4358;42.100;25.222;2024-02-23T04:14:47;20.93;;;14.03;;
8640;SDS011;4358;42.100;25.222;2024-02-23T04:17:14;20.23;;;13.57;;
8640;SDS011;4358;42.100;25.222;2024-02-23T04:19:40;16.57;;;11.60;;
8640;SDS011;4358;42.100;25.222;2024-02-23T04:22:08;16.47;;;11.80;;
8640;SDS011;4358;42.100;25.222;2024-02-23T04:24:36;20.33;;;11.60;;
8640;SDS011;4358;42.100;25.222;2024-02-23T04:27:05;17.70;;;11.53;;
8640;SDS011;4358;42.100;25.222;2024-02-23T04:29:33;21.00;;;12.70;;
8640;SDS011;4358;42.100;25.222;2024-02-23T04:32:00;32.60;;;16.47;;
8640;SDS011;4358;42.100;25.222;2024-02-23T04:34:28;31.10;;;15.53;;
8640;SDS011;4358;42.100;25.222;2024-02-23T04:36:55;27.40;;;14.93;;
8640;SDS011;4358;42.100;25.222;2024-02-23T04:39:22;21.23;;;13.83;;
8640;SDS011;4358;42.100;25.222;2024-02-23T04:41:48;16.70;;;11.10;;
8640;SDS011;4358;42.100;25.222;2024-02-23T04:44:17;15.20;;;9.30;;
8640;SDS011;4358;42.100;25.222;2024-02-23T04:46:43;16.27;;;9.20;;
8640;SDS011;4358;42.100;25.222;2024-02-23T04:49:10;15.03;;;9.70;;
8640;SDS011;4358;42.100;25.222;2024-02-23T04:51:38;16.83;;;11.13;;
8640;SDS011;4358;42.100;25.222;2024-02-23T04:54:05;28.20;;;15.10;;
8640;SDS011;4358;42.100;25.222;2024-02-23T04:56:32;51.60;;;20.47;;
8640;SDS011;4358;42.100;25.222;2024-02-23T04:58:59;33.70;;;18.63;;
8640;SDS011;4358;42.100;25.222;2024-02-23T05:01:27;33.90;;;15.37;;
8640;SDS011;4358;42.100;25.222;2024-02-23T05:03:54;36.67;;;17.70;;
8640;SDS011;4358;42.100;25.222;2024-02-23T05:06:21;35.43;;;16.17;;
8640;SDS011;4358;42.100;25.222;2024-02-23T05:08:47;29.70;;;14.30;;
8640;SDS011;4358;42.100;25.222;2024-02-23T05:11:14;21.63;;;12.60;;
8640;SDS011;4358;42.100;25.222;2024-02-23T05:13:42;16.50;;;11.33;;
8640;SDS011;4358;42.100;25.222;2024-02-23T05:16:08;18.87;;;13.43;;
8640;SDS011;4358;42.100;25.222;2024-02-23T05:18:37;19.30;;;12.90;;
8640;SDS011;4358;42.100;25.222;2024-02-23T05:21:03;17.57;;;12.63;;
8640;SDS011;4358;42.100;25.222;2024-02-23T05:23:31;16.03;;;11.13;;
8640;SDS011;4358;42.100;25.222;2024-02-23T05:25:58;16.80;;;11.87;;
8640;SDS011;4358;42.100;25.222;2024-02-23T05:28:24;23.77;;;14.63;;
8640;SDS011;4358;42.100;25.222;2024-02-23T05:30:51;48.80;;;20.37;;
8640;SDS011;4358;42.100;25.222;2024-02-23T05:33:18;33.03;;;19.27;;
8640;SDS011;4358;42.100;25.222;2024-02-23T05:35:47;26.17;;;14.50;;
8640;SDS011;4358;42.100;25.222;2024-02-23T05:38:14;21.83;;;13.40;;
8640;SDS011;4358;42.100;25.222;2024-02-23T05:40:41;27.03;;;14.00;;
8640;SDS011;4358;42.100;25.222;2024-02-23T05:43:08;31.47;;;15.03;;
8640;SDS011;4358;42.100;25.222;2024-02-23T05:45:35;45.77;;;16.57;;
8640;SDS011;4358;42.100;25.222;2024-02-23T05:48:02;33.80;;;15.83;;
8640;SDS011;4358;42.100;25.222;2024-02-23T05:50:29;46.70;;;22.13;;
8640;SDS011;4358;42.100;25.222;2024-02-23T05:52:57;34.57;;;19.60;;
8640;SDS011;4358;42.100;25.222;2024-02-23T05:55:24;26.17;;;16.30;;
8640;SDS011;4358;42.100;25.222;2024-02-23T05:57:51;27.83;;;15.60;;
8640;SDS011;4358;42.100;25.222;2024-02-23T06:00:18;32.90;;;17.60;;
8640;SDS011;4358;42.100;25.222;2024-02-23T06:02:46;28.07;;;19.23;;
8640;SDS011;4358;42.100;25.222;2024-02-23T06:05:13;29.33;;;18.10;;
8640;SDS011;4358;42.100;25.222;2024-02-23T06:07:40;25.40;;;15.90;;
8640;SDS011;4358;42.100;25.222;2024-02-23T06:10:09;26.33;;;16.43;;
8640;SDS011;4358;42.100;25.222;2024-02-23T06:12:36;23.97;;;16.30;;
8640;SDS011;4358;42.100;25.222;2024-02-23T06:15:03;30.73;;;18.87;;
8640;SDS011;4358;42.100;25.222;2024-02-23T06:17:31;30.73;;;19.43;;
8640;SDS011;4358;42.100;25.222;2024-02-23T06:19:57;32.40;;;20.03;;
8640;SDS011;4358;42.100;25.222;2024-02-23T06:22:24;27.70;;;16.57;;
8640;SDS011;4358;42.100;25.222;2024-02-23T06:24:50;25.37;;;17.57;;
8640;SDS011;4358;42.100;25.222;2024-02-23T06:27:19;25.80;;;17.63;;
8640;SDS011;4358;42.100;25.222;2024-02-23T06:29:47;29.33;;;16.90;;
8640;SDS011;4358;42.100;25.222;2024-02-23T06:32:14;24.87;;;15.03;;
8640;SDS011;4358;42.100;25.222;2024-02-23T06:34:41;24.90;;;16.53;;
8640;SDS011;4358;42.100;25.222;2024-02-23T06:37:08;23.27;;;15.87;;
8640;SDS011;4358;42.100;25.222;2024-02-23T06:39:34;26.93;;;16.33;;
8640;SDS011;4358;42.100;25.222;2024-02-23T06:42:01;29.70;;;16.50;;
8640;SDS011;4358;42.100;25.222;2024-02-23T06:44:30;24.30;;;16.83;;
8640;SDS011;4358;42.100;25.222;2024-02-23T06:46:57;28.77;;;17.23;;
8640;SDS011;4358;42.100;25.222;2024-02-23T06:49:24;21.30;;;15.10;;
8640;SDS011;4358;42.100;25.222;2024-02-23T06:51:51;24.43;;;15.50;;
8640;SDS011;4358;42.100;25.222;2024-02-23T06:54:18;22.70;;;15.80;;
8640;SDS011;4358;42.100;25.222;2024-02-23T06:56:45;21.47;;;15.17;;
8640;SDS011;4358;42.100;25.222;2024-02-23T06:59:12;30.80;;;17.23;;
8640;SDS011;4358;42.100;25.222;2024-02-23T07:01:48;30.73;;;19.40;;
8640;SDS011;4358;42.100;25.222;2024-02-23T07:04:15;32.23;;;17.53;;
8640;SDS011;4358;42.100;25.222;2024-02-23T07:06:42;38.80;;;18.43;;
8640;SDS011;4358;42.100;25.222;2024-02-23T07:09:09;26.53;;;18.23;;
8640;SDS011;4358;42.100;25.222;2024-02-23T07:11:36;24.17;;;15.43;;
8640;SDS011;4358;42.100;25.222;2024-02-23T07:14:03;21.67;;;16.20;;
8640;SDS011;4358;42.100;25.222;2024-02-23T07:16:31;24.30;;;17.60;;
8640;SDS011;4358;42.100;25.222;2024-02-23T07:18:59;23.90;;;17.93;;
8640;SDS011;4358;42.100;25.222;2024-02-23T07:21:26;21.40;;;15.73;;
8640;SDS011;4358;42.100;25.222;2024-02-23T07:23:53;21.07;;;15.17;;
8640;SDS011;4358;42.100;25.222;2024-02-23T07:26:20;24.03;;;15.37;;
8640;SDS011;4358;42.100;25.222;2024-02-23T07:28:47;19.50;;;14.40;;
8640;SDS011;4358;42.100;25.222;2024-02-23T07:31:14;21.57;;;15.17;;
8640;SDS011;4358;42.100;25.222;2024-02-23T07:33:42;23.40;;;14.93;;
8640;SDS011;4358;42.100;25.222;2024-02-23T07:36:14;20.87;;;15.03;;
8640;SDS011;4358;42.100;25.222;2024-02-23T07:38:41;36.77;;;19.30;;
8640;SDS011;4358;42.100;25.222;2024-02-23T07:41:09;21.73;;;15.07;;
8640;SDS011;4358;42.100;25.222;2024-02-23T07:43:36;23.20;;;15.60;;
8640;SDS011;4358;42.100;25.222;2024-02-23T07:46:03;18.13;;;14.13;;
8640;SDS011;4358;42.100;25.222;2024-02-23T07:48:33;20.80;;;13.57;;
8640;SDS011;4358;42.100;25.222;2024-02-23T07:51:00;15.57;;;11.97;;
8640;SDS011;4358;42.100;25.222;2024-02-23T07:53:28;17.43;;;12.50;;
8640;SDS011;4358;42.100;25.222;2024-02-23T07:55:55;18.53;;;13.13;;
8640;SDS011;4358;42.100;25.222;2024-02-23T07:58:24;18.13;;;13.10;;
8640;SDS011;4358;42.100;25.222;2024-02-23T08:00:51;21.80;;;14.63;;
8640;SDS011;4358;42.100;25.222;2024-02-23T08:03:19;19.17;;;13.60;;
8640;SDS011;4358;42.100;25.222;2024-02-23T08:05:46;17.87;;;11.93;;
8640;SDS011;4358;42.100;25.222;2024-02-23T08:08:12;20.23;;;13.40;;
8640;SDS011;4358;42.100;25.222;2024-02-23T08:10:41;15.00;;;12.23;;
8640;SDS011;4358;42.100;25.222;2024-02-23T08:13:07;19.40;;;13.60;;
8640;SDS011;4358;42.100;25.222;2024-02-23T08:15:35;15.33;;;12.53;;
8640;SDS011;4358;42.100;25.222;2024-02-23T08:18:02;19.43;;;12.90;;
8640;SDS011;4358;42.100;25.222;2024-02-23T08:20:29;17.23;;;12.50;;
8640;SDS011;4358;42.100;25.222;2024-02-23T08:22:56;15.50;;;12.27;;
8640;SDS011;4358;42.100;25.222;2024-02-23T08:25:22;14.43;;;11.63;;
8640;SDS011;4358;42.100;25.222;2024-02-23T08:27:51;15.83;;;12.33;;
8640;SDS011;4358;42.100;25.222;2024-02-23T08:30:17;15.20;;;13.03;;
8640;SDS011;4358;42.100;25.222;2024-02-23T08:32:45;18.60;;;12.90;;
8640;SDS011;4358;42.100;25.222;2024-02-23T08:35:12;16.57;;;12.07;;
8640;SDS011;4358;42.100;25.222;2024-02-23T08:37:40;16.90;;;13.07;;
8640;SDS011;4358;42.100;25.222;2024-02-23T08:40:07;15.93;;;11.43;;
8640;SDS011;4358;42.100;25.222;2024-02-23T08:42:35;18.30;;;12.40;;
8640;SDS011;4358;42.100;25.222;2024-02-23T08:45:03;15.20;;;12.73;;
8640;SDS011;4358;42.100;25.222;2024-02-23T08:47:31;13.80;;;10.70;;
8640;SDS011;4358;42.100;25.222;2024-02-23T08:50:00;15.47;;;11.53;;
8640;SDS011;4358;42.100;25.222;2024-02-23T08:52:27;16.53;;;10.87;;
8640;SDS011;4358;42.100;25.222;2024-02-23T08:54:54;14.27;;;10.30;;
8640;SDS011;4358;42.100;25.222;2024-02-23T08:57:21;13.47;;;10.80;;
8640;SDS011;4358;42.100;25.222;2024-02-23T08:59:48;11.30;;;9.63;;
8640;SDS011;4358;42.100;25.222;2024-02-23T09:02:16;12.27;;;9.97;;
8640;SDS011;4358;42.100;25.222;2024-02-23T09:04:44;13.00;;;10.40;;
8640;SDS011;4358;42.100;25.222;2024-02-23T09:07:11;11.70;;;10.23;;
8640;SDS011;4358;42.100;25.222;2024-02-23T09:09:38;13.80;;;10.13;;
8640;SDS011;4358;42.100;25.222;2024-02-23T09:12:05;13.00;;;10.33;;
8640;SDS011;4358;42.100;25.222;2024-02-23T09:14:35;13.40;;;11.17;;
8640;SDS011;4358;42.100;25.222;2024-02-23T09:17:03;11.20;;;9.67;;
8640;SDS011;4358;42.100;25.222;2024-02-23T09:19:32;13.50;;;10.80;;
8640;SDS011;4358;42.100;25.222;2024-02-23T09:21:59;13.40;;;10.67;;
8640;SDS011;4358;42.100;25.222;2024-02-23T09:24:27;13.90;;;10.87;;
8640;SDS011;4358;42.100;25.222;2024-02-23T09:26:54;15.10;;;11.70;;
8640;SDS011;4358;42.100;25.222;2024-02-23T09:29:21;13.37;;;10.63;;
8640;SDS011;4358;42.100;25.222;2024-02-23T09:31:48;14.03;;;10.67;;
8640;SDS011;4358;42.100;25.222;2024-02-23T09:34:15;11.60;;;9.53;;
8640;SDS011;4358;42.100;25.222;2024-02-23T09:36:43;13.90;;;9.63;;
8640;SDS011;4358;42.100;25.222;2024-02-23T09:39:10;13.57;;;10.87;;
8640;SDS011;4358;42.100;25.222;2024-02-23T09:41:37;12.80;;;10.03;;
8640;SDS011;4358;42.100;25.222;2024-02-23T09:44:05;14.30;;;12.30;;
8640;SDS011;4358;42.100;25.222;2024-02-23T09:46:34;13.53;;;11.30;;
8640;SDS011;4358;42.100;25.222;2024-02-23T09:49:03;13.90;;;10.70;;
8640;SDS011;4358;42.100;25.222;2024-02-23T09:51:31;13.17;;;11.40;;
8640;SDS011;4358;42.100;25.222;2024-02-23T09:54:02;13.10;;;11.00;;
8640;SDS011;4358;42.100;25.222;2024-02-23T09:56:29;14.97;;;10.93;;
8640;SDS011;4358;42.100;25.222;2024-02-23T09:59:00;13.83;;;10.90;;
8640;SDS011;4358;42.100;25.222;2024-02-23T10:01:29;12.87;;;11.10;;
8640;SDS011;4358;42.100;25.222;2024-02-23T10:03:58;12.73;;;10.43;;
8640;SDS011;4358;42.100;25.222;2024-02-23T10:06:26;13.30;;;10.77;;
8640;SDS011;4358;42.100;25.222;2024-02-23T10:08:53;14.13;;;10.50;;
8640;SDS011;4358;42.100;25.222;2024-02-23T10:11:21;14.53;;;10.57;;
8640;SDS011;4358;42.100;25.222;2024-02-23T10:13:49;13.87;;;9.97;;
8640;SDS011;4358;42.100;25.222;2024-02-23T10:16:17;10.73;;;9.63;;
8640;SDS011;4358;42.100;25.222;2024-02-23T10:18:45;14.00;;;10.30;;
8640;SDS011;4358;42.100;25.222;2024-02-23T10:21:13;12.00;;;10.70;;
8640;SDS011;4358;42.100;25.222;2024-02-23T10:23:40;11.67;;;10.43;;
8640;SDS011;4358;42.100;25.222;2024-02-23T10:26:07;13.20;;;10.73;;
8640;SDS011;4358;42.100;25.222;2024-02-23T10:28:36;12.90;;;10.50;;
8640;SDS011;4358;42.100;25.222;2024-02-23T10:31:04;12.23;;;10.70;;
8640;SDS011;4358;42.100;25.222;2024-02-23T10:33:31;11.80;;;10.10;;
8640;SDS011;4358;42.100;25.222;2024-02-23T10:35:58;14.80;;;10.93;;
8640;SDS011;4358;42.100;25.222;2024-02-23T10:38:27;13.23;;;10.93;;
8640;SDS011;4358;42.100;25.222;2024-02-23T10:40:57;13.03;;;10.67;;
8640;SDS011;4358;42.100;25.222;2024-02-23T10:43:30;12.60;;;9.63;;
8640;SDS011;4358;42.100;25.222;2024-02-23T10:46:03;12.57;;;10.80;;
8640;SDS011;4358;42.100;25.222;2024-02-23T10:48:33;15.30;;;10.23;;
8640;SDS011;4358;42.100;25.222;2024-02-23T10:51:01;12.80;;;10.50;;
8640;SDS011;4358;42.100;25.222;2024-02-23T10:53:30;10.77;;;9.67;;
8640;SDS011;4358;42.100;25.222;2024-02-23T10:55:58;12.83;;;10.63;;
8640;SDS011;4358;42.100;25.222;2024-02-23T10:58:25;12.80;;;10.57;;
8640;SDS011;4358;42.100;25.222;2024-02-23T11:00:52;15.07;;;12.23;;
8640;SDS011;4358;42.100;25.222;2024-02-23T11:03:27;13.90;;;11.07;;
8640;SDS011;4358;42.100;25.222;2024-02-23T11:05:54;14.37;;;11.57;;
8640;SDS011;4358;42.100;25.222;2024-02-23T11:08:22;13.20;;;11.23;;
8640;SDS011;4358;42.100;25.222;2024-02-23T11:10:49;13.63;;;11.80;;
8640;SDS011;4358;42.100;25.222;2024-02-23T11:13:16;12.03;;;10.17;;
8640;SDS011;4358;42.100;25.222;2024-02-23T11:15:43;8.83;;;7.93;;
8640;SDS011;4358;42.100;25.222;2024-02-23T11:18:22;16.23;;;9.70;;
8640;SDS011;4358;42.100;25.222;2024-02-23T11:21:00;12.67;;;8.50;;
8640;SDS011;4358;42.100;25.222;2024-02-23T11:23:38;11.27;;;9.23;;
8640;SDS011;4358;42.100;25.222;2024-02-23T11:26:06;11.17;;;8.77;;
8640;SDS011;4358;42.100;25.222;2024-02-23T11:28:41;9.73;;;8.47;;
8640;SDS011;4358;42.100;25.222;2024-02-23T11:31:11;9.03;;;7.53;;
8640;SDS011;4358;42.100;25.222;2024-02-23T11:33:39;8.70;;;7.80;;
8640;SDS011;4358;42.100;25.222;2024-02-23T11:36:08;8.50;;;7.60;;
8640;SDS011;4358;42.100;25.222;2024-02-23T11:38:35;7.70;;;6.70;;
8640;SDS011;4358;42.100;25.222;2024-02-23T11:41:05;7.40;;;6.60;;
8640;SDS011;4358;42.100;25.222;2024-02-23T11:43:33;8.13;;;7.20;;
8640;SDS011;4358;42.100;25.222;2024-02-23T11:46:01;9.10;;;7.60;;
8640;SDS011;4358;42.100;25.222;2024-02-23T11:48:27;8.73;;;7.33;;
8640;SDS011;4358;42.100;25.222;2024-02-23T11:50:54;12.53;;;7.93;;
8640;SDS011;4358;42.100;25.222;2024-02-23T11:53:23;9.13;;;8.10;;
8640;SDS011;4358;42.100;25.222;2024-02-23T11:55:50;9.50;;;7.60;;
8640;SDS011;4358;42.100;25.222;2024-02-23T11:58:18;10.10;;;7.30;;
8640;SDS011;4358;42.100;25.222;2024-02-23T12:00:45;16.17;;;7.90;;
8640;SDS011;4358;42.100;25.222;2024-02-23T12:03:12;8.43;;;7.27;;
8640;SDS011;4358;42.100;25.222;2024-02-23T12:05:39;11.93;;;7.00;;
8640;SDS011;4358;42.100;25.222;2024-02-23T12:08:06;27.93;;;9.23;;
8640;SDS011;4358;42.100;25.222;2024-02-23T12:10:34;16.97;;;13.37;;
8640;SDS011;4358;42.100;25.222;2024-02-23T12:13:02;16.40;;;13.13;;
8640;SDS011;4358;42.100;25.222;2024-02-23T12:15:30;7.90;;;7.10;;
8640;SDS011;4358;42.100;25.222;2024-02-23T12:17:57;12.70;;;10.83;;
8640;SDS011;4358;42.100;25.222;2024-02-23T12:20:25;10.87;;;8.83;;
8640;SDS011;4358;42.100;25.222;2024-02-23T12:22:54;8.33;;;6.57;;
8640;SDS011;4358;42.100;25.222;2024-02-23T12:25:21;7.53;;;6.67;;
8640;SDS011;4358;42.100;25.222;2024-02-23T12:27:54;7.53;;;6.70;;
8640;SDS011;4358;42.100;25.222;2024-02-23T12:30:22;8.60;;;7.70;;
8640;SDS011;4358;42.100;25.222;2024-02-23T12:32:49;9.87;;;7.97;;
8640;SDS011;4358;42.100;25.222;2024-02-23T12:35:16;8.00;;;7.20;;
8640;SDS011;4358;42.100;25.222;2024-02-23T12:37:43;10.77;;;8.10;;
8640;SDS011;4358;42.100;25.222;2024-02-23T12:40:11;7.53;;;6.53;;
8640;SDS011;4358;42.100;25.222;2024-02-23T12:42:38;6.73;;;6.03;;
8640;SDS011;4358;42.100;25.222;2024-02-23T12:45:07;7.60;;;6.90;;
8640;SDS011;4358;42.100;25.222;2024-02-23T12:47:34;8.37;;;6.27;;
8640;SDS011;4358;42.100;25.222;2024-02-23T12:50:01;10.10;;;7.00;;
8640;SDS011;4358;42.100;25.222;2024-02-23T12:52:28;13.50;;;6.70;;
8640;SDS011;4358;42.100;25.222;2024-02-23T12:54:54;10.07;;;6.60;;
8640;SDS011;4358;42.100;25.222;2024-02-23T12:57:21;14.47;;;7.83;;
8640;SDS011;4358;42.100;25.222;2024-02-23T12:59:48;13.40;;;7.57;;
8640;SDS011;4358;42.100;25.222;2024-02-23T13:02:16;8.17;;;7.03;;
8640;SDS011;4358;42.100;25.222;2024-02-23T13:04:44;13.50;;;9.50;;
8640;SDS011;4358;42.100;25.222;2024-02-23T13:07:14;12.50;;;7.10;;
8640;SDS011;4358;42.100;25.222;2024-02-23T13:09:42;8.63;;;7.40;;
8640;SDS011;4358;42.100;25.222;2024-02-23T13:12:08;13.90;;;10.80;;
8640;SDS011;4358;42.100;25.222;2024-02-23T13:14:35;14.10;;;8.30;;
8640;SDS011;4358;42.100;25.222;2024-02-23T13:17:02;10.23;;;9.20;;
8640;SDS011;4358;42.100;25.222;2024-02-23T13:19:31;8.73;;;7.70;;
8640;SDS011;4358;42.100;25.222;2024-02-23T13:21:57;13.13;;;8.83;;
8640;SDS011;4358;42.100;25.222;2024-02-23T13:24:26;11.30;;;8.40;;
8640;SDS011;4358;42.100;25.222;2024-02-23T13:26:53;10.73;;;7.90;;
8640;SDS011;4358;42.100;25.222;2024-02-23T13:29:20;10.77;;;7.83;;
8640;SDS011;4358;42.100;25.222;2024-02-23T13:31:46;10.60;;;8.87;;
8640;SDS011;4358;42.100;25.222;2024-02-23T13:34:13;10.63;;;8.73;;
8640;SDS011;4358;42.100;25.222;2024-02-23T13:36:43;10.63;;;7.60;;
8640;SDS011;4358;42.100;25.222;2024-02-23T13:39:10;9.00;;;6.60;;
8640;SDS011;4358;42.100;25.222;2024-02-23T13:41:37;8.83;;;6.10;;
8640;SDS011;4358;42.100;25.222;2024-02-23T13:44:04;10.77;;;6.17;;
8640;SDS011;4358;42.100;25.222;2024-02-23T13:46:31;5.70;;;4.93;;
8640;SDS011;4358;42.100;25.222;2024-02-23T13:49:04;9.50;;;4.60;;
8640;SDS011;4358;42.100;25.222;2024-02-23T13:51:32;8.10;;;4.90;;
8640;SDS011;4358;42.100;25.222;2024-02-23T13:54:01;6.47;;;5.07;;
8640;SDS011;4358;42.100;25.222;2024-02-23T13:56:29;7.57;;;5.30;;
8640;SDS011;4358;42.100;25.222;2024-02-23T13:58:56;5.63;;;4.47;;
8640;SDS011;4358;42.100;25.222;2024-02-23T14:01:22;5.70;;;4.90;;
8640;SDS011;4358;42.100;25.222;2024-02-23T14:03:50;5.73;;;4.47;;
8640;SDS011;4358;42.100;25.222;2024-02-23T14:06:16;5.33;;;4.70;;
8640;SDS011;4358;42.100;25.222;2024-02-23T14:08:43;5.40;;;4.90;;
8640;SDS011;4358;42.100;25.222;2024-02-23T14:11:13;7.53;;;5.37;;
8640;SDS011;4358;42.100;25.222;2024-02-23T14:13:40;8.27;;;5.03;;
8640;SDS011;4358;42.100;25.222;2024-02-23T14:16:09;9.73;;;5.37;;
8640;SDS011;4358;42.100;25.222;2024-02-23T14:18:36;26.47;;;13.70;;
8640;SDS011;4358;42.100;25.222;2024-02-23T14:21:05;8.10;;;4.73;;
8640;SDS011;4358;42.100;25.222;2024-02-23T14:23:32;6.93;;;5.73;;
8640;SDS011;4358;42.100;25.222;2024-02-23T14:25:58;11.17;;;8.07;;
8640;SDS011;4358;42.100;25.222;2024-02-23T14:28:27;9.30;;;7.70;;
8640;SDS011;4358;42.100;25.222;2024-02-23T14:30:53;15.73;;;10.07;;
8640;SDS011;4358;42.100;25.222;2024-02-23T14:33:20;7.30;;;5.37;;
8640;SDS011;4358;42.100;25.222;2024-02-23T14:35:47;8.17;;;4.97;;
8640;SDS011;4358;42.100;25.222;2024-02-23T14:38:14;8.53;;;5.00;;
8640;SDS011;4358;42.100;25.222;2024-02-23T14:40:41;10.47;;;7.07;;
8640;SDS011;4358;42.100;25.222;2024-02-23T14:43:08;9.10;;;5.63;;